Terminal Aerodrome Forecast
Issued by NWS Springfield, MO

Home | Current Version | Previous Version | Text Only | Print | Product List | Glossary On
Versions: 1 2 3 4 5 6 7 8 9 10 11 12 13 14 15 16 17 18 19 20
888
FTUS43 KSGF 212320
TAFSGF
TAF
KSGF 212320Z 2200/2224 07006KT P6SM SCT250
     FM220400 10006KT P6SM SCT200
     FM221200 13006KT P6SM FEW250
     FM221500 15010KT P6SM FEW250=

USA.gov is the U.S. government's official web portal to all federal, state and local government web resources and services.